Time;durP1;ratioP1;P1;durP2;ratioP2;P2;SDS_P1;SDS_P2;PMS_P1;PMS_P2;Temp;Humidity;BMP_temperature;BMP_pressure;BME280_temperature;BME280_humidity;BME280_pressure;Samples;Min_cycle;Max_cycle;Signal;HPM_P1;HPM_P2
2023/07/29 00:01:49;;;;;;;2.37;2.17;;;;;;;18.21;100.00;99525.22;5049407;28;20224;-65
2023/07/29 00:04:14;;;;;;;3.00;2.37;;;;;;;18.21;100.00;99530.41;5044099;28;20204;-65
2023/07/29 00:06:40;;;;;;;2.83;2.63;;;;;;;18.11;100.00;99534.03;5054327;28;20219;-68
2023/07/29 00:09:05;;;;;;;3.33;2.37;;;;;;;17.91;100.00;99523.69;5047599;28;20180;-68
2023/07/29 00:11:32;;;;;;;2.60;2.33;;;;;;;17.98;100.00;99518.78;5042383;28;20301;-66
2023/07/29 00:13:57;;;;;;;3.23;2.40;;;;;;;17.85;100.00;99519.91;5047205;28;20589;-66
2023/07/29 00:16:23;;;;;;;4.67;2.27;;;;;;;17.84;100.00;99523.47;5052551;28;20267;-64
2023/07/29 00:18:48;;;;;;;5.57;2.63;;;;;;;17.88;100.00;99524.81;5047653;28;20181;-64
2023/07/29 00:21:14;;;;;;;3.97;2.57;;;;;;;17.85;100.00;99517.31;5037781;28;20282;-65
2023/07/29 00:23:39;;;;;;;3.57;2.40;;;;;;;17.86;100.00;99505.94;5046472;28;20191;-65
2023/07/29 00:26:05;;;;;;;2.90;2.03;;;;;;;17.88;100.00;99514.41;5045634;28;20232;-67
2023/07/29 00:28:30;;;;;;;3.47;2.63;;;;;;;17.89;100.00;99504.84;5045826;28;20235;-66
2023/07/29 00:30:55;;;;;;;3.83;2.50;;;;;;;17.95;100.00;99508.66;5048250;28;20318;-67
2023/07/29 00:33:21;;;;;;;2.57;2.37;;;;;;;17.99;100.00;99507.41;5054449;28;20177;-66
2023/07/29 00:35:46;;;;;;;2.80;2.57;;;;;;;17.96;100.00;99503.31;5048347;28;20651;-65
2023/07/29 00:38:11;;;;;;;4.07;2.53;;;;;;;17.97;100.00;99498.94;5044064;28;20177;-65
2023/07/29 00:40:37;;;;;;;2.90;2.70;;;;;;;18.03;100.00;99499.16;5034299;28;20264;-65
2023/07/29 00:43:03;;;;;;;2.97;2.73;;;;;;;17.93;100.00;99502.75;5064737;28;20169;-67
2023/07/29 00:45:29;;;;;;;4.40;2.60;;;;;;;17.91;100.00;99497.69;5041377;28;20691;-67
2023/07/29 00:47:54;;;;;;;4.17;2.57;;;;;;;17.96;100.00;99492.91;5054660;28;20305;-65
2023/07/29 00:50:20;;;;;;;2.80;2.50;;;;;;;18.00;100.00;99490.84;5032910;28;20285;-67
2023/07/29 00:52:45;;;;;;;4.60;2.87;;;;;;;18.01;100.00;99482.88;5061902;28;20185;-66
2023/07/29 00:55:11;;;;;;;3.60;2.83;;;;;;;18.06;100.00;99482.44;5045880;28;20233;-66
2023/07/29 00:57:36;;;;;;;3.27;2.97;;;;;;;18.02;100.00;99478.47;5046543;28;20186;-71
2023/07/29 01:00:04;;;;;;;2.83;2.63;;;;;;;18.04;100.00;99479.16;5057054;28;20182;-69
2023/07/29 01:02:29;;;;;;;6.10;3.20;;;;;;;17.99;100.00;99479.59;5062701;28;20246;-69
2023/07/29 01:04:57;;;;;;;3.53;3.23;;;;;;;17.99;100.00;99479.59;5050270;28;20201;-69
2023/07/29 01:07:32;;;;;;;4.60;2.77;;;;;;;17.94;100.00;99470.59;5054832;28;20229;-70
2023/07/29 01:10:38;;;;;;;5.00;3.57;;;;;;;17.84;100.00;99455.84;5048930;28;20264;-69
2023/07/29 01:13:31;;;;;;;3.97;3.37;;;;;;;17.78;100.00;99468.63;5036617;28;20221;-70
2023/07/29 01:16:04;;;;;;;4.53;3.70;;;;;;;17.84;100.00;99468.03;5050244;28;20221;-69
2023/07/29 01:18:36;;;;;;;4.57;3.47;;;;;;;17.88;100.00;99469.38;5043093;28;20243;-69
2023/07/29 01:21:06;;;;;;;5.37;3.87;;;;;;;17.94;100.00;99471.41;5042437;28;20224;-69
2023/07/29 01:23:34;;;;;;;4.43;3.37;;;;;;;17.99;100.00;99482.19;5058553;28;20187;-70
2023/07/29 01:26:00;;;;;;;5.93;3.90;;;;;;;18.02;100.00;99484.53;5046415;28;20296;-69
2023/07/29 01:28:26;;;;;;;6.30;4.07;;;;;;;18.05;100.00;99486.81;5055153;28;20186;-69
2023/07/29 01:31:00;;;;;;;5.77;3.70;;;;;;;18.05;100.00;99480.81;5038563;28;20700;-70
2023/07/29 01:33:30;;;;;;;5.47;3.87;;;;;;;18.06;100.00;99466.84;5054618;28;20231;-69
2023/07/29 01:36:01;;;;;;;4.47;4.03;;;;;;;18.10;100.00;99470.78;5045630;28;20192;-69
2023/07/29 01:38:34;;;;;;;5.33;4.60;;;;;;;17.92;100.00;99465.50;5043348;28;20185;-69
2023/07/29 01:41:03;;;;;;;5.80;4.20;;;;;;;17.92;100.00;99468.09;5048017;28;20239;-70
2023/07/29 01:43:30;;;;;;;4.77;4.33;;;;;;;17.97;100.00;99471.09;5050689;28;20659;-69
2023/07/29 01:45:55;;;;;;;12.60;4.20;;;;;;;18.03;100.00;99472.31;5055681;28;20232;-70
2023/07/29 01:48:21;;;;;;;7.93;4.80;;;;;;;18.04;100.00;99466.16;5054101;28;20615;-70
2023/07/29 01:50:46;;;;;;;5.00;4.50;;;;;;;18.08;100.00;99469.28;5047137;28;20275;-70
2023/07/29 01:53:12;;;;;;;7.67;4.43;;;;;;;18.14;100.00;99468.69;5029818;28;20643;-70
2023/07/29 01:55:38;;;;;;;6.23;4.77;;;;;;;18.25;100.00;99465.06;5049754;28;20669;-70
2023/07/29 01:58:03;;;;;;;4.90;4.60;;;;;;;18.20;100.00;99461.09;5043079;28;20269;-70
2023/07/29 02:00:28;;;;;;;6.17;5.00;;;;;;;18.00;100.00;99454.41;5049796;28;20307;-70
2023/07/29 02:02:54;;;;;;;6.93;4.70;;;;;;;17.98;100.00;99449.34;5056286;28;20186;-69
2023/07/29 02:05:19;;;;;;;9.03;4.27;;;;;;;18.07;100.00;99447.63;5045383;28;20212;-69
2023/07/29 02:07:44;;;;;;;5.17;3.97;;;;;;;18.13;100.00;99454.84;5059612;28;20527;-69
2023/07/29 02:10:09;;;;;;;8.23;3.70;;;;;;;18.10;100.00;99454.31;5049246;28;20195;-69
2023/07/29 02:12:35;;;;;;;4.20;3.83;;;;;;;18.05;100.00;99463.41;5048657;28;20496;-70
2023/07/29 02:15:00;;;;;;;5.37;4.60;;;;;;;18.04;100.00;99458.34;5050179;28;20236;-70
2023/07/29 02:17:26;;;;;;;5.43;4.50;;;;;;;18.02;100.00;99455.91;5049842;28;20656;-69
2023/07/29 02:19:51;;;;;;;4.60;4.20;;;;;;;17.96;100.00;99450.44;5049601;28;20212;-69
2023/07/29 02:22:17;;;;;;;7.57;4.20;;;;;;;17.89;100.00;99458.00;5056038;28;20228;-69
2023/07/29 02:24:43;;;;;;;6.53;3.73;;;;;;;17.70;100.00;99458.91;5050245;28;20189;-68
2023/07/29 02:27:08;;;;;;;5.83;4.20;;;;;;;17.75;100.00;99460.13;5062191;28;20714;-68
2023/07/29 02:29:34;;;;;;;6.03;4.83;;;;;;;17.72;100.00;99437.03;5050913;28;20188;-67
2023/07/29 02:32:00;;;;;;;8.97;4.57;;;;;;;17.61;100.00;99436.41;5054985;28;20240;-64
2023/07/29 02:34:25;;;;;;;6.83;5.07;;;;;;;17.59;100.00;99416.56;5060042;28;20192;-64
2023/07/29 02:36:50;;;;;;;5.60;5.10;;;;;;;17.52;100.00;99412.09;5050867;28;20177;-64
2023/07/29 02:39:16;;;;;;;5.80;5.23;;;;;;;17.44;100.00;99423.22;5060966;28;20176;-64
2023/07/29 02:41:41;;;;;;;6.13;4.80;;;;;;;17.38;100.00;99423.81;5053199;28;20308;-65
2023/07/29 02:44:07;;;;;;;5.17;4.67;;;;;;;17.47;100.00;99429.91;5065149;28;20632;-65
2023/07/29 02:46:32;;;;;;;7.67;5.00;;;;;;;17.46;100.00;99431.69;5057542;28;20535;-66
2023/07/29 02:48:57;;;;;;;5.57;5.07;;;;;;;17.52;100.00;99419.91;5053218;28;20205;-65
2023/07/29 02:51:22;;;;;;;6.10;4.87;;;;;;;17.33;100.00;99410.38;5043157;28;20355;-65
2023/07/29 02:53:48;;;;;;;6.70;5.07;;;;;;;17.24;100.00;99405.13;5038895;28;20235;-66
2023/07/29 02:56:13;;;;;;;7.80;5.10;;;;;;;17.25;100.00;99406.75;5063570;28;20184;-66
2023/07/29 02:58:39;;;;;;;5.63;5.13;;;;;;;17.30;100.00;99421.91;5059880;28;20181;-66
2023/07/29 03:01:06;;;;;;;6.43;5.13;;;;;;;17.32;100.00;99419.19;5041976;28;20311;-66
2023/07/29 03:03:32;;;;;;;6.97;6.03;;;;;;;17.26;100.00;99415.38;5062767;28;20191;-66
2023/07/29 03:06:03;;;;;;;6.70;6.00;;;;;;;17.24;100.00;99414.69;5053839;28;20645;-66
2023/07/29 03:08:28;;;;;;;6.83;5.43;;;;;;;17.29;100.00;99419.44;5052876;28;20177;-66
2023/07/29 03:10:54;;;;;;;9.97;5.93;;;;;;;17.32;100.00;99412.19;5060844;28;20220;-66
2023/07/29 03:13:19;;;;;;;8.30;5.57;;;;;;;17.29;100.00;99419.44;5062473;28;20185;-67
2023/07/29 03:15:45;;;;;;;6.13;5.43;;;;;;;17.32;100.00;99413.97;5055984;28;20332;-67
2023/07/29 03:18:10;;;;;;;6.50;5.60;;;;;;;17.24;100.00;99414.69;5063619;28;20177;-67
2023/07/29 03:20:35;;;;;;;5.63;5.17;;;;;;;17.34;100.00;99412.03;5048298;28;20622;-67
2023/07/29 03:23:01;;;;;;;5.30;4.80;;;;;;;17.38;100.00;99414.22;5065102;28;20185;-67
2023/07/29 03:25:26;;;;;;;6.40;5.33;;;;;;;17.43;100.00;99416.38;5063333;28;20231;-66
2023/07/29 03:27:51;;;;;;;5.37;4.90;;;;;;;17.43;100.00;99419.78;5060583;28;20177;-67
2023/07/29 03:30:21;;;;;;;5.53;5.00;;;;;;;17.46;100.00;99423.06;5025357;28;20580;-67
2023/07/29 03:32:46;;;;;;;6.53;5.03;;;;;;;17.40;100.00;99414.91;5066595;28;20178;-67
2023/07/29 03:35:11;;;;;;;7.53;4.93;;;;;;;17.31;100.00;99400.16;5052376;28;20212;-66
2023/07/29 03:37:37;;;;;;;6.50;5.07;;;;;;;17.32;100.00;99406.19;5058129;28;20173;-67
2023/07/29 03:40:02;;;;;;;6.60;4.63;;;;;;;17.29;100.00;99399.50;5053267;28;20659;-67
2023/07/29 03:42:28;;;;;;;5.40;4.90;;;;;;;17.29;100.00;99390.84;5064156;28;20667;-67
2023/07/29 03:44:53;;;;;;;5.90;5.30;;;;;;;17.19;100.00;99391.75;5057420;28;20309;-68
2023/07/29 03:47:18;;;;;;;10.10;5.33;;;;;;;17.20;100.00;99397.75;5059481;28;20217;-68
2023/07/29 03:49:44;;;;;;;6.70;5.10;;;;;;;17.15;100.00;99392.97;5065683;28;20182;-68
2023/07/29 03:52:09;;;;;;;6.00;5.03;;;;;;;17.16;100.00;99391.22;5058197;28;20596;-68
2023/07/29 03:54:35;;;;;;;6.73;5.60;;;;;;;17.15;100.00;99389.56;5058748;28;20184;-68
2023/07/29 03:57:00;;;;;;;9.47;6.17;;;;;;;17.14;100.00;99387.91;5058965;28;20192;-68
2023/07/29 03:59:25;;;;;;;5.63;5.17;;;;;;;17.14;100.00;99388.75;5067031;28;20260;-68
2023/07/29 04:01:50;;;;;;;9.00;4.90;;;;;;;16.97;100.00;99390.31;5058946;28;20239;-68
2023/07/29 04:04:16;;;;;;;6.00;4.87;;;;;;;17.01;100.00;99396.06;5053935;28;20204;-68
2023/07/29 04:06:41;;;;;;;6.13;4.97;;;;;;;17.03;100.00;99391.50;5056886;28;20185;-68
2023/07/29 04:09:07;;;;;;;6.93;6.10;;;;;;;17.00;100.00;99395.22;5053352;28;20174;-68
2023/07/29 04:11:33;;;;;;;6.70;6.10;;;;;;;17.02;100.00;99387.31;5054174;28;20291;-68
2023/07/29 04:13:58;;;;;;;7.10;6.40;;;;;;;17.00;100.00;99391.81;5071554;28;20193;-68
2023/07/29 04:16:23;;;;;;;6.77;6.17;;;;;;;17.02;100.00;99393.31;5066949;28;20270;-68
2023/07/29 04:18:48;;;;;;;7.90;6.23;;;;;;;17.00;100.00;99392.63;5061635;28;20256;-68
2023/07/29 04:21:14;;;;;;;7.13;6.30;;;;;;;17.02;100.00;99390.72;5057790;28;20262;-67
2023/07/29 04:23:40;;;;;;;6.40;5.80;;;;;;;17.03;100.00;99394.13;5062119;28;20176;-68
2023/07/29 04:26:05;;;;;;;7.30;6.57;;;;;;;16.96;100.00;99400.88;5066390;28;20640;-68
2023/07/29 04:28:30;;;;;;;6.70;6.00;;;;;;;16.97;100.00;99395.53;5064999;28;20194;-68
2023/07/29 04:30:56;;;;;;;7.57;5.93;;;;;;;16.97;100.00;99402.47;5052389;28;20690;-68
2023/07/29 04:33:21;;;;;;;14.87;7.00;;;;;;;16.97;100.00;99392.91;5057157;28;20205;-68
2023/07/29 04:35:46;;;;;;;8.57;6.30;;;;;;;16.93;100.00;99401.94;5050872;28;20215;-68
2023/07/29 04:38:11;;;;;;;7.23;6.57;;;;;;;17.00;100.00;99397.00;5052404;28;20546;-68
2023/07/29 04:40:37;;;;;;;7.00;6.30;;;;;;;16.98;100.00;99394.56;5050911;28;20229;-68
2023/07/29 04:43:02;;;;;;;6.47;5.97;;;;;;;17.02;100.00;99397.69;5060095;28;20228;-68
2023/07/29 04:45:29;;;;;;;6.70;5.87;;;;;;;17.02;100.00;99393.31;5053274;28;20213;-68
2023/07/29 04:47:54;;;;;;;7.73;6.77;;;;;;;17.13;100.00;99397.50;5052190;28;20177;-68
2023/07/29 04:50:20;;;;;;;7.10;6.40;;;;;;;17.21;100.00;99392.41;5042662;28;20180;-69
2023/07/29 04:52:45;;;;;;;6.60;6.10;;;;;;;17.13;100.00;99392.31;5064487;28;20652;-69
2023/07/29 04:55:10;;;;;;;7.03;6.43;;;;;;;17.07;100.00;99392.88;5070042;28;20255;-68
2023/07/29 04:57:35;;;;;;;8.10;6.70;;;;;;;17.23;100.00;99389.66;5053318;28;20181;-67
2023/07/29 05:00:02;;;;;;;11.60;6.77;;;;;;;17.31;100.00;99379.34;5059169;28;20186;-67
2023/07/29 05:02:28;;;;;;;7.27;6.20;;;;;;;17.38;100.00;99377.81;5040918;28;20213;-68
2023/07/29 05:04:53;;;;;;;6.30;5.70;;;;;;;17.37;100.00;99375.38;5053477;28;20202;-68
2023/07/29 05:07:18;;;;;;;6.23;5.73;;;;;;;17.35;100.00;99375.53;5052004;28;20280;-68
2023/07/29 05:09:44;;;;;;;5.87;5.03;;;;;;;17.55;100.00;99373.63;5052820;28;20177;-69
2023/07/29 05:12:09;;;;;;;5.33;4.93;;;;;;;17.80;100.00;99375.63;5042651;28;20274;-68
2023/07/29 05:14:34;;;;;;;6.07;5.57;;;;;;;17.88;100.00;99379.13;5044386;28;20236;-70
2023/07/29 05:17:00;;;;;;;5.30;4.90;;;;;;;17.96;100.00;99385.41;5051076;28;20177;-70
2023/07/29 05:19:25;;;;;;;9.43;5.37;;;;;;;18.15;100.00;99397.47;5052170;28;20219;-70
2023/07/29 05:21:51;;;;;;;7.70;5.57;;;;;;;18.29;100.00;99385.69;5043271;28;20216;-70
2023/07/29 05:24:16;;;;;;;5.87;4.87;;;;;;;18.19;100.00;99381.38;5061759;28;20720;-70
2023/07/29 05:26:41;;;;;;;4.53;4.20;;;;;;;18.13;100.00;99386.38;5063969;28;20174;-71
2023/07/29 05:29:06;;;;;;;4.90;4.50;;;;;;;18.06;100.00;99389.56;5064571;28;20188;-71
2023/07/29 05:31:32;;;;;;;6.87;4.43;;;;;;;18.30;100.00;99401.16;5053693;28;20642;-71
2023/07/29 05:33:57;;;;;;;4.43;3.90;;;;;;;18.63;100.00;99400.56;5069914;28;20181;-70
2023/07/29 05:36:23;;;;;;;5.10;4.70;;;;;;;18.74;100.00;99396.88;5061213;28;20181;-70
2023/07/29 05:38:48;;;;;;;5.07;4.17;;;;;;;19.01;100.00;99401.13;5065064;28;20197;-70
2023/07/29 05:41:13;;;;;;;3.63;3.33;;;;;;;19.20;100.00;99397.44;5042804;28;20220;-70
2023/07/29 05:43:38;;;;;;;3.90;3.60;;;;;;;19.46;100.00;99393.97;5066149;28;20643;-70
2023/07/29 05:46:04;;;;;;;3.73;3.20;;;;;;;19.43;100.00;99386.47;5059768;28;20212;-69
2023/07/29 05:48:29;;;;;;;3.57;3.27;;;;;;;19.46;100.00;99384.38;5066292;28;20177;-69
2023/07/29 05:50:54;;;;;;;4.23;3.47;;;;;;;19.52;100.00;99399.38;5060262;28;20217;-68
2023/07/29 05:53:19;;;;;;;6.10;3.90;;;;;;;19.39;100.00;99427.69;5068928;28;20255;-67
2023/07/29 05:55:45;;;;;;;19.77;6.63;;;;;;;19.10;100.00;99448.91;5062432;28;20184;-65
2023/07/29 05:58:10;;;;;;;6.63;4.27;;;;;;;18.48;100.00;99439.34;5061936;28;20185;-64
2023/07/29 06:00:36;;;;;;;10.07;4.60;;;;;;;18.20;100.00;99422.06;5054803;28;20216;-66
2023/07/29 06:03:01;;;;;;;6.77;4.70;;;;;;;18.05;100.00;99426.97;5076855;28;20173;-66
2023/07/29 06:05:26;;;;;;;4.47;2.90;;;;;;;18.01;100.00;99417.00;5058508;28;20213;-67
2023/07/29 06:07:51;;;;;;;2.73;2.47;;;;;;;17.95;100.00;99418.41;5063664;28;20172;-66
2023/07/29 06:10:19;;;;;;;2.80;2.57;;;;;;;17.89;100.00;99429.38;5049912;28;20186;-66
2023/07/29 06:12:46;;;;;;;6.47;2.50;;;;;;;17.83;100.00;99433.38;5078131;28;20238;-66
2023/07/29 06:15:12;;;;;;;2.53;2.07;;;;;;;17.78;100.00;99420.00;5056662;28;20307;-67
2023/07/29 06:17:37;;;;;;;4.37;1.97;;;;;;;17.65;100.00;99409.97;5059178;28;20259;-67
2023/07/29 06:20:03;;;;;;;2.37;2.17;;;;;;;17.67;100.00;99394.22;5054465;28;20169;-66
2023/07/29 06:22:28;;;;;;;4.50;2.00;;;;;;;17.68;100.00;99407.06;5071783;28;20193;-67
2023/07/29 06:24:53;;;;;;;3.07;2.17;;;;;;;17.63;100.00;99398.06;5057856;28;20197;-65
2023/07/29 06:27:19;;;;;;;2.87;2.30;;;;;;;17.52;100.00;99396.50;5055817;28;20184;-66
2023/07/29 06:29:44;;;;;;;4.73;2.77;;;;;;;17.47;100.00;99396.91;5067385;28;20193;-66
2023/07/29 06:32:09;;;;;;;5.57;3.30;;;;;;;17.55;100.00;99404.81;5059978;28;20227;-66
2023/07/29 06:34:34;;;;;;;6.83;3.70;;;;;;;17.57;100.00;99417.66;5060091;28;20173;-66
2023/07/29 06:37:00;;;;;;;5.87;4.20;;;;;;;17.64;100.00;99423.94;5062443;28;20172;-66
2023/07/29 06:39:25;;;;;;;6.37;4.63;;;;;;;17.67;100.00;99415.00;5063248;28;20349;-66
2023/07/29 06:41:50;;;;;;;5.67;4.70;;;;;;;17.67;100.00;99426.22;5058349;28;20307;-67
2023/07/29 06:44:16;;;;;;;6.23;5.63;;;;;;;17.70;100.00;99428.53;5061912;28;20222;-66
2023/07/29 06:46:41;;;;;;;8.47;5.20;;;;;;;17.73;100.00;99430.03;5058862;28;20200;-67
2023/07/29 06:49:06;;;;;;;5.73;5.10;;;;;;;17.72;100.00;99412.78;5067849;28;20238;-67
2023/07/29 06:51:34;;;;;;;5.30;4.80;;;;;;;17.75;100.00;99376.09;5068648;27;20616;-66
2023/07/29 06:54:00;;;;;;;12.33;6.00;;;;;;;17.69;100.00;99364.47;5066891;28;20285;-67
2023/07/29 06:56:25;;;;;;;6.80;5.63;;;;;;;17.77;100.00;99400.16;5072097;28;20199;-67
2023/07/29 06:58:51;;;;;;;7.60;5.23;;;;;;;17.98;100.00;99425.09;5060318;28;20181;-67
2023/07/29 07:01:16;;;;;;;6.87;5.30;;;;;;;18.05;100.00;99437.38;5046802;27;20726;-67
2023/07/29 07:03:41;;;;;;;9.00;5.10;;;;;;;18.00;100.00;99428.38;5069473;28;20193;-67
2023/07/29 07:06:06;;;;;;;5.40;4.90;;;;;;;18.12;100.00;99428.97;5061466;28;20216;-66
2023/07/29 07:08:32;;;;;;;5.93;5.30;;;;;;;18.23;100.00;99441.75;5042221;28;20186;-67
2023/07/29 07:10:57;;;;;;;6.13;5.27;;;;;;;18.46;100.00;99468.16;5045347;28;20221;-65
2023/07/29 07:13:22;;;;;;;6.20;5.60;;;;;;;18.38;100.00;99460.25;5050229;28;20185;-64
2023/07/29 07:15:48;;;;;;;7.53;5.27;;;;;;;18.23;100.00;99459.97;5052470;28;20236;-65
2023/07/29 07:18:13;;;;;;;6.20;5.60;;;;;;;18.30;100.00;99450.59;5065129;28;20181;-65
2023/07/29 07:20:38;;;;;;;6.17;5.57;;;;;;;18.43;100.00;99457.22;5040519;28;20284;-65
2023/07/29 07:23:05;;;;;;;8.90;5.60;;;;;;;18.52;100.00;99470.16;5065696;28;20632;-64
2023/07/29 07:25:31;;;;;;;6.73;5.40;;;;;;;18.66;100.00;99473.19;5056812;28;20205;-66
2023/07/29 07:27:56;;;;;;;4.93;4.43;;;;;;;18.71;100.00;99465.75;5057095;28;20180;-66
2023/07/29 07:30:21;;;;;;;4.77;4.37;;;;;;;18.94;100.00;99465.25;5036656;27;20285;-66
2023/07/29 07:32:46;;;;;;;4.20;3.83;;;;;;;18.82;100.00;99459.47;5067775;28;20516;-67
2023/07/29 07:35:12;;;;;;;5.67;4.07;;;;;;;19.09;100.00;99455.09;5052323;28;20272;-67
2023/07/29 07:37:38;;;;;;;3.80;3.40;;;;;;;19.19;100.00;99458.41;5056955;28;20584;-67
2023/07/29 07:40:03;;;;;;;5.77;3.37;;;;;;;19.25;100.00;99460.41;5043301;28;20638;-67
2023/07/29 07:42:28;;;;;;;4.87;3.47;;;;;;;19.21;100.00;99460.84;5070159;28;20576;-67
2023/07/29 07:44:54;;;;;;;4.07;3.67;;;;;;;19.25;100.00;99462.16;5058424;28;20569;-67
2023/07/29 07:47:19;;;;;;;3.80;3.50;;;;;;;19.41;100.00;99470.09;5053746;28;20193;-67
2023/07/29 07:49:44;;;;;;;3.93;3.50;;;;;;;19.64;100.00;99466.91;5053847;28;20580;-67
2023/07/29 07:52:10;;;;;;;5.63;3.10;;;;;;;19.83;100.00;99466.69;5047571;28;20221;-67
2023/07/29 07:54:35;;;;;;;4.67;3.30;;;;;;;20.13;100.00;99458.38;5051867;28;20189;-67
2023/07/29 07:57:00;;;;;;;5.43;3.03;;;;;;;20.35;100.00;99469.19;5052098;28;20692;-67
2023/07/29 07:59:25;;;;;;;3.67;2.50;;;;;;;20.46;100.00;99463.63;5051813;28;20197;-67
2023/07/29 08:01:52;;;;;;;3.43;2.77;;;;;;;21.88;100.00;99463.09;5054865;28;20223;-69
2023/07/29 08:04:17;;;;;;;2.20;2.10;;;;;;;24.22;100.00;99438.50;5054613;28;20193;-68
2023/07/29 08:06:42;;;;;;;7.43;1.80;;;;;;;24.74;100.00;99425.97;5052781;28;20570;-68
2023/07/29 08:09:08;;;;;;;1.90;1.50;;;;;;;24.70;100.00;99422.94;5053952;28;20174;-69
2023/07/29 08:11:33;;;;;;;4.25;1.65;;;;;;;24.46;100.00;99432.84;5053891;28;20224;-67
2023/07/29 08:13:58;;;;;;;3.55;1.70;;;;;;;24.28;100.00;99430.69;5057330;28;20188;-66
2023/07/29 08:16:24;;;;;;;2.67;1.52;;;;;;;24.15;100.00;99436.63;5052759;28;20643;-65
2023/07/29 08:18:49;;;;;;;2.47;1.60;;;;;;;23.91;100.00;99429.09;5052219;28;20231;-64
2023/07/29 08:21:14;;;;;;;3.35;1.52;;;;;;;24.31;100.00;99432.94;5043810;28;20232;-66
2023/07/29 08:23:39;;;;;;;3.08;1.20;;;;;;;26.24;100.00;99436.63;5059183;28;20671;-67
2023/07/29 08:26:05;;;;;;;1.70;0.88;;;;;;;28.12;100.00;99424.63;5052952;28;20290;-68
2023/07/29 08:28:37;;;;;;;2.17;0.95;;;;;;;29.78;100.00;99426.50;5053252;28;20247;-68
2023/07/29 08:31:02;;;;;;;3.15;0.85;;;;;;;30.62;100.00;99435.38;5043190;28;20231;-68
2023/07/29 08:33:28;;;;;;;2.35;0.90;;;;;;;30.63;100.00;99441.50;5061021;28;20189;-68
2023/07/29 08:35:54;;;;;;;2.28;0.98;;;;;;;30.07;100.00;99433.84;5050552;28;20625;-70
2023/07/29 08:38:19;;;;;;;1.90;0.80;;;;;;;29.43;100.00;99427.19;5051748;28;20528;-67
2023/07/29 08:41:15;;;;;;;1.55;1.10;;;;;;;29.97;100.00;99422.97;5043179;28;20248;-68
2023/07/29 08:43:50;;;;;;;2.10;0.95;;;;;;;29.72;100.00;99430.06;5036813;28;20656;-67
2023/07/29 08:46:16;;;;;;;1.20;1.10;;;;;;;29.22;100.00;99428.44;5052309;28;20221;-68
2023/07/29 08:48:43;;;;;;;1.38;0.90;;;;;;;27.60;100.00;99433.50;5051482;28;20206;-67
2023/07/29 08:51:10;;;;;;;3.22;0.90;;;;;;;28.54;100.00;99430.16;5049447;28;20532;-68
2023/07/29 08:53:36;;;;;;;2.08;0.85;;;;;;;28.82;100.00;99426.28;5058813;28;20320;-68
2023/07/29 08:56:02;;;;;;;1.73;0.73;;;;;;;30.55;100.00;99435.50;5050530;28;20263;-69
2023/07/29 08:58:29;;;;;;;1.52;0.77;;;;;;;32.02;91.57;99442.31;5052411;28;20216;-69
2023/07/29 09:00:54;;;;;;;2.63;0.93;;;;;;;32.03;84.31;99440.47;5048304;28;20231;-69
2023/07/29 09:03:20;;;;;;;1.13;1.02;;;;;;;30.89;90.93;99446.31;5048254;28;20178;-68
2023/07/29 09:05:46;;;;;;;1.63;0.90;;;;;;;29.63;100.00;99442.81;5049819;28;20699;-68
2023/07/29 09:08:12;;;;;;;1.45;0.93;;;;;;;27.90;100.00;99437.38;5051004;28;20319;-68
2023/07/29 09:10:37;;;;;;;1.40;0.90;;;;;;;26.79;100.00;99440.06;5043362;28;20374;-68
2023/07/29 09:13:04;;;;;;;1.10;0.93;;;;;;;26.34;100.00;99432.81;5050839;28;20655;-68
2023/07/29 09:15:35;;;;;;;0.88;0.88;;;;;;;26.18;100.00;99444.56;5051398;28;20733;-67
2023/07/29 09:18:12;;;;;;;1.63;1.35;;;;;;;25.86;100.00;99434.56;5052151;28;20662;-68
2023/07/29 09:20:37;;;;;;;3.10;1.10;;;;;;;26.87;100.00;99445.13;5045129;28;20302;-68
2023/07/29 09:23:02;;;;;;;1.20;0.95;;;;;;;27.48;100.00;99438.63;5051016;28;20193;-68
2023/07/29 09:25:29;;;;;;;1.17;1.05;;;;;;;28.08;100.00;99437.47;5049961;28;20255;-69
2023/07/29 09:28:02;;;;;;;1.30;0.80;;;;;;;27.67;100.00;99442.22;5051768;28;20200;-68
2023/07/29 09:30:27;;;;;;;1.10;0.95;;;;;;;28.79;100.00;99437.28;5043142;28;20246;-69
2023/07/29 09:32:59;;;;;;;2.22;1.00;;;;;;;31.67;93.58;99439.88;5063299;28;20181;-69
2023/07/29 09:35:30;;;;;;;2.97;1.00;;;;;;;31.29;91.14;99441.28;5051793;28;20181;-69
2023/07/29 09:37:55;;;;;;;2.08;0.80;;;;;;;31.29;95.75;99446.59;5051580;28;20177;-69
2023/07/29 09:40:20;;;;;;;4.13;1.02;;;;;;;30.96;93.70;99443.53;5043673;28;20372;-68
2023/07/29 09:42:53;;;;;;;1.25;0.80;;;;;;;29.72;100.00;99447.78;5063675;28;20201;-68
2023/07/29 09:45:23;;;;;;;0.80;0.80;;;;;;;28.30;100.00;99437.91;5051241;28;20213;-68
2023/07/29 09:47:49;;;;;;;0.90;0.90;;;;;;;27.16;100.00;99430.63;5051747;28;20252;-69
2023/07/29 09:50:15;;;;;;;1.52;1.40;;;;;;;26.25;100.00;99425.09;5042982;28;20196;-68
2023/07/29 09:52:41;;;;;;;0.98;0.82;;;;;;;27.04;100.00;99422.56;5064686;28;20264;-69
2023/07/29 09:55:07;;;;;;;1.30;1.13;;;;;;;27.71;100.00;99426.75;5049693;28;20219;-69
2023/07/29 09:57:32;;;;;;;3.13;1.33;;;;;;;28.37;100.00;99421.19;5051580;28;20612;-68
2023/07/29 09:59:58;;;;;;;1.05;0.93;;;;;;;27.63;100.00;99421.69;5050162;28;20181;-68
2023/07/29 10:02:25;;;;;;;2.67;1.15;;;;;;;28.55;100.00;99421.22;5055787;28;20225;-69
2023/07/29 10:04:52;;;;;;;1.85;0.90;;;;;;;30.78;91.26;99430.41;5049357;28;20628;-69
2023/07/29 10:07:18;;;;;;;1.80;1.10;;;;;;;32.89;81.28;99435.88;5051076;28;20649;-70
2023/07/29 10:09:45;;;;;;;3.42;1.45;;;;;;;32.84;72.18;99431.28;5050986;28;20287;-69
2023/07/29 10:12:11;;;;;;;4.05;1.05;;;;;;;31.89;82.76;99437.28;5055352;28;20334;-69
2023/07/29 10:14:38;;;;;;;2.22;1.10;;;;;;;33.33;78.13;99435.88;5043414;28;20700;-69
2023/07/29 10:17:05;;;;;;;1.75;1.00;;;;;;;32.76;78.36;99424.53;5051095;28;20184;-69
2023/07/29 10:19:30;;;;;;;2.90;1.20;;;;;;;31.56;83.19;99422.91;5049835;28;20181;-69
2023/07/29 10:21:59;;;;;;;1.23;1.08;;;;;;;30.13;93.82;99419.69;5054787;28;20632;-69
2023/07/29 10:24:30;;;;;;;1.80;0.95;;;;;;;29.21;97.50;99424.19;5050594;28;20199;-69
2023/07/29 10:26:58;;;;;;;1.40;1.30;;;;;;;28.39;100.00;99419.13;5051361;28;20349;-69
2023/07/29 10:29:24;;;;;;;1.10;1.10;;;;;;;27.89;100.00;99418.06;5049721;28;20204;-68
2023/07/29 10:31:53;;;;;;;1.33;1.23;;;;;;;27.28;100.00;99422.84;5041749;28;20875;-68
2023/07/29 10:34:19;;;;;;;1.52;1.30;;;;;;;27.22;100.00;99419.22;5051401;28;20213;-68
2023/07/29 10:36:46;;;;;;;1.33;1.10;;;;;;;26.90;100.00;99416.50;5050823;28;20185;-68
2023/07/29 10:39:12;;;;;;;2.25;1.38;;;;;;;26.93;100.00;99406.53;5051181;28;20517;-69
2023/07/29 10:41:54;;;;;;;2.67;1.50;;;;;;;26.02;100.00;99408.84;5052070;28;20228;-69
2023/07/29 10:44:42;;;;;;;2.25;1.27;;;;;;;25.35;100.00;99424.47;5050893;28;20213;-70
2023/07/29 10:47:13;;;;;;;3.25;1.60;;;;;;;25.12;100.00;99426.41;5050822;28;20246;-69
2023/07/29 10:49:54;;;;;;;3.63;1.90;;;;;;;24.71;100.00;99423.72;5051008;28;20181;-68
2023/07/29 10:52:34;;;;;;;2.13;1.40;;;;;;;24.23;100.00;99406.00;5053505;28;20306;-69
2023/07/29 10:55:00;;;;;;;1.52;1.40;;;;;;;23.99;100.00;99398.31;5050501;28;20192;-69
2023/07/29 10:57:32;;;;;;;6.95;1.55;;;;;;;23.81;100.00;99411.03;5050511;28;20192;-69
2023/07/29 10:59:58;;;;;;;1.80;1.45;;;;;;;24.28;100.00;99408.84;5050958;28;20173;-69
2023/07/29 11:02:37;;;;;;;2.00;1.50;;;;;;;24.96;100.00;99395.94;5044321;28;20227;-69
2023/07/29 11:05:07;;;;;;;1.65;1.30;;;;;;;24.90;100.00;99395.94;5050171;28;20288;-69
2023/07/29 11:07:44;;;;;;;1.23;1.13;;;;;;;24.80;100.00;99394.44;5037579;28;20283;-69
2023/07/29 11:10:09;;;;;;;1.60;1.50;;;;;;;24.98;100.00;99393.94;5040852;28;20560;-69
2023/07/29 11:12:50;;;;;;;1.17;1.02;;;;;;;25.21;100.00;99392.81;5064109;28;20181;-68
2023/07/29 11:15:19;;;;;;;2.08;1.20;;;;;;;25.61;100.00;99384.25;5042318;28;20266;-68
2023/07/29 11:17:52;;;;;;;1.50;1.35;;;;;;;25.80;100.00;99384.50;5066214;28;20204;-68
2023/07/29 11:20:20;;;;;;;2.30;1.30;;;;;;;25.91;100.00;99392.63;5045987;28;20264;-68
2023/07/29 11:22:45;;;;;;;1.67;1.40;;;;;;;26.03;100.00;99381.47;5065548;28;20185;-68